createdAt,value
2022-10-22T00:02:19.884Z,17.57
2022-10-22T00:04:47.989Z,17.35
2022-10-22T00:07:15.446Z,17.43
2022-10-22T00:09:41.985Z,17.42
2022-10-22T00:12:08.773Z,17.45
2022-10-22T00:14:35.432Z,17.56
2022-10-22T00:17:02.010Z,17.49
2022-10-22T00:19:28.537Z,17.60
2022-10-22T00:21:55.130Z,17.44
2022-10-22T00:24:21.670Z,17.40
2022-10-22T00:26:48.133Z,17.58
2022-10-22T00:29:14.592Z,17.57
2022-10-22T00:31:41.080Z,17.56
2022-10-22T00:34:07.535Z,17.45
2022-10-22T00:36:34.047Z,17.54
2022-10-22T00:39:00.493Z,17.58
2022-10-22T00:41:26.964Z,17.60
2022-10-22T00:44:02.614Z,17.71
2022-10-22T00:46:29.505Z,17.69
2022-10-22T00:48:57.398Z,17.77
2022-10-22T00:51:26.441Z,17.88
2022-10-22T00:53:56.138Z,17.95
2022-10-22T00:56:23.853Z,17.82
2022-10-22T00:58:55.455Z,17.81
2022-10-22T01:01:27.530Z,17.64
2022-10-22T01:03:54.452Z,17.83
2022-10-22T01:06:27.252Z,17.76
2022-10-22T01:09:33.479Z,17.89
2022-10-22T01:12:29.514Z,17.82
2022-10-22T01:15:05.160Z,17.80
2022-10-22T01:17:58.129Z,17.65
2022-10-22T01:20:49.484Z,17.47
2022-10-22T01:23:37.850Z,17.59
2022-10-22T01:26:07.245Z,17.51
2022-10-22T01:28:50.132Z,17.61
2022-10-22T01:31:18.250Z,17.68
2022-10-22T01:33:46.086Z,17.64
2022-10-22T01:36:13.116Z,17.61
2022-10-22T01:38:40.071Z,17.60
2022-10-22T01:41:07.284Z,17.65
2022-10-22T01:43:33.840Z,17.77
2022-10-22T01:46:03.242Z,17.65
2022-10-22T01:48:57.970Z,17.87
2022-10-22T01:52:06.810Z,17.55
2022-10-22T01:54:41.894Z,17.80
2022-10-22T01:57:08.403Z,17.77
2022-10-22T01:59:45.571Z,17.83
2022-10-22T02:02:33.552Z,17.73
2022-10-22T02:05:13.421Z,17.50
2022-10-22T02:07:44.348Z,17.73
2022-10-22T02:10:11.950Z,17.73
2022-10-22T02:12:39.608Z,17.63
2022-10-22T02:15:06.943Z,17.60
2022-10-22T02:17:35.266Z,17.55
2022-10-22T02:20:16.568Z,17.65
2022-10-22T02:22:43.598Z,17.59
2022-10-22T02:25:11.101Z,17.76
2022-10-22T02:27:50.525Z,17.73
2022-10-22T02:30:19.298Z,17.69
2022-10-22T02:32:58.029Z,17.41
2022-10-22T02:35:26.844Z,17.40
2022-10-22T02:37:54.300Z,17.53
2022-10-22T02:40:21.317Z,17.19
2022-10-22T02:42:48.972Z,17.16
2022-10-22T02:45:16.658Z,17.08
2022-10-22T02:47:43.193Z,17.16
2022-10-22T02:50:10.505Z,17.15
2022-10-22T02:52:37.799Z,17.04
2022-10-22T02:55:05.440Z,16.94
2022-10-22T02:57:32.159Z,16.67
2022-10-22T02:59:58.623Z,16.61
2022-10-22T03:02:25.145Z,16.48
2022-10-22T03:04:51.598Z,16.63
2022-10-22T03:07:18.104Z,16.58
2022-10-22T03:09:44.612Z,16.75
2022-10-22T03:12:11.135Z,16.69
2022-10-22T03:14:37.564Z,16.59
2022-10-22T03:17:04.033Z,16.46
2022-10-22T03:19:30.526Z,16.59
2022-10-22T03:22:01.427Z,16.60
2022-10-22T03:24:40.362Z,16.46
2022-10-22T03:27:06.848Z,16.26
2022-10-22T03:29:36.613Z,16.36
2022-10-22T03:32:03.481Z,16.49
2022-10-22T03:34:29.978Z,16.54
2022-10-22T03:36:57.654Z,16.46
2022-10-22T03:39:24.145Z,16.59
2022-10-22T03:41:51.441Z,16.57
2022-10-22T03:44:18.234Z,16.62
2022-10-22T03:46:45.019Z,16.79
2022-10-22T03:49:11.745Z,16.78
2022-10-22T03:51:38.280Z,16.83
2022-10-22T03:54:05.061Z,16.81
2022-10-22T03:56:31.555Z,16.76
2022-10-22T03:58:59.902Z,16.60
2022-10-22T04:01:27.698Z,16.65
2022-10-22T04:03:54.663Z,16.92
2022-10-22T04:06:21.431Z,16.56
2022-10-22T04:08:48.177Z,16.87
2022-10-22T04:11:15.766Z,16.82
2022-10-22T04:13:42.717Z,17.04
2022-10-22T04:16:19.490Z,16.95
2022-10-22T04:18:47.277Z,16.92
2022-10-22T04:21:15.435Z,16.60
2022-10-22T04:23:46.989Z,16.62
2022-10-22T04:26:13.952Z,16.68
2022-10-22T04:28:40.839Z,16.50
2022-10-22T04:31:09.290Z,16.44
2022-10-22T04:33:35.849Z,16.46
2022-10-22T04:36:10.001Z,16.50
2022-10-22T04:38:36.449Z,16.63
2022-10-22T04:41:16.941Z,16.53
2022-10-22T04:43:44.252Z,16.69
2022-10-22T04:46:11.859Z,16.79
2022-10-22T04:48:40.018Z,16.76
2022-10-22T04:51:07.927Z,16.55
2022-10-22T04:53:37.742Z,16.66
2022-10-22T04:56:13.419Z,16.62
2022-10-22T04:58:39.922Z,16.77
2022-10-22T05:01:20.622Z,16.75
2022-10-22T05:03:49.101Z,16.92
2022-10-22T05:06:15.996Z,16.81
2022-10-22T05:08:43.598Z,16.93
2022-10-22T05:11:15.306Z,16.86
2022-10-22T05:13:41.832Z,16.99
2022-10-22T05:16:08.406Z,16.93
2022-10-22T05:18:39.356Z,16.90
2022-10-22T05:21:09.905Z,16.93
2022-10-22T05:23:36.380Z,16.97
2022-10-22T05:26:07.408Z,16.84
2022-10-22T05:28:34.527Z,16.95
2022-10-22T05:31:01.615Z,16.98
2022-10-22T05:33:30.005Z,17.05
2022-10-22T05:35:56.925Z,17.04
2022-10-22T05:38:23.917Z,16.87
2022-10-22T05:41:00.881Z,16.99
2022-10-22T05:43:27.740Z,17.10
2022-10-22T05:45:54.205Z,17.03
2022-10-22T05:48:20.686Z,17.01
2022-10-22T05:50:50.665Z,17.05
2022-10-22T05:53:18.552Z,17.01
2022-10-22T05:55:45.676Z,16.90
2022-10-22T05:58:12.620Z,16.91
2022-10-22T06:00:39.129Z,17.00
2022-10-22T06:03:05.615Z,16.73
2022-10-22T06:05:36.172Z,16.65
2022-10-22T06:08:02.752Z,16.31
2022-10-22T06:10:29.205Z,16.46
2022-10-22T06:12:55.667Z,16.23
2022-10-22T06:15:22.104Z,16.61
2022-10-22T06:17:48.647Z,16.28
2022-10-22T06:20:15.223Z,16.42
2022-10-22T06:22:41.814Z,16.54
2022-10-22T06:25:08.910Z,16.47
2022-10-22T06:27:35.420Z,16.73
2022-10-22T06:30:01.877Z,16.58
2022-10-22T06:32:28.361Z,16.73
2022-10-22T06:34:54.809Z,16.57
2022-10-22T06:37:21.285Z,16.61
2022-10-22T06:39:47.709Z,16.52
2022-10-22T06:42:14.529Z,16.76
2022-10-22T06:44:40.985Z,16.79
2022-10-22T06:47:07.477Z,16.95
2022-10-22T06:49:33.961Z,17.05
2022-10-22T06:52:00.420Z,17.01
2022-10-22T06:54:26.868Z,16.91
2022-10-22T06:56:53.364Z,16.85
2022-10-22T06:59:19.791Z,16.85
2022-10-22T07:01:46.358Z,17.00
2022-10-22T07:04:12.941Z,17.02
2022-10-22T07:06:39.428Z,16.90
2022-10-22T07:09:05.998Z,16.75
2022-10-22T07:11:43.941Z,16.50
2022-10-22T07:14:11.096Z,16.79
2022-10-22T07:16:37.924Z,16.26
2022-10-22T07:19:05.157Z,16.45
2022-10-22T07:21:32.030Z,16.59
2022-10-22T07:23:59.318Z,16.15
2022-10-22T07:26:28.502Z,16.11
2022-10-22T07:28:55.064Z,16.30
2022-10-22T07:31:21.504Z,16.48
2022-10-22T07:33:48.056Z,16.26
2022-10-22T07:36:18.037Z,16.39
2022-10-22T07:38:46.609Z,16.36
2022-10-22T07:41:14.597Z,16.36
2022-10-22T07:43:41.140Z,16.63
2022-10-22T07:46:08.822Z,16.61
2022-10-22T07:48:36.519Z,16.79
2022-10-22T07:51:03.250Z,16.82
2022-10-22T07:53:30.124Z,16.88
2022-10-22T07:55:56.884Z,16.81
2022-10-22T07:58:23.801Z,16.32
2022-10-22T08:00:50.921Z,16.57
2022-10-22T08:03:18.064Z,16.98
2022-10-22T08:05:44.505Z,16.91
2022-10-22T08:08:12.138Z,17.38
2022-10-22T08:10:39.052Z,17.44
2022-10-22T08:13:05.945Z,17.48
2022-10-22T08:15:32.404Z,17.24
2022-10-22T08:17:58.869Z,17.16
2022-10-22T08:20:25.316Z,16.98
2022-10-22T08:22:51.954Z,17.03
2022-10-22T08:25:18.973Z,17.16
2022-10-22T08:27:45.837Z,16.89
2022-10-22T08:30:13.101Z,16.93
2022-10-22T08:32:39.668Z,17.07
2022-10-22T08:35:06.330Z,17.03
2022-10-22T08:37:32.934Z,16.69
2022-10-22T08:39:59.415Z,16.67
2022-10-22T08:42:35.180Z,16.88
2022-10-22T08:45:20.619Z,17.17
2022-10-22T08:48:09.023Z,16.86
2022-10-22T08:50:45.941Z,17.33
2022-10-22T08:53:21.685Z,17.44
2022-10-22T08:55:49.960Z,17.32
2022-10-22T08:58:31.552Z,17.56
2022-10-22T09:01:13.838Z,17.35
2022-10-22T09:03:51.233Z,17.57
2022-10-22T09:06:22.033Z,17.54
2022-10-22T09:08:48.759Z,17.35
2022-10-22T09:11:27.511Z,17.15
2022-10-22T09:13:55.958Z,17.49
2022-10-22T09:16:31.421Z,17.54
2022-10-22T09:19:18.547Z,17.69
2022-10-22T09:22:30.919Z,17.33
2022-10-22T09:25:20.965Z,17.38
2022-10-22T09:27:48.253Z,18.16
2022-10-22T09:30:21.913Z,18.42
2022-10-22T09:32:52.230Z,18.50
2022-10-22T09:35:23.040Z,18.60
2022-10-22T09:37:51.929Z,18.46
2022-10-22T09:40:18.895Z,18.55
2022-10-22T09:42:47.232Z,18.85
2022-10-22T09:45:23.567Z,19.09
2022-10-22T09:48:04.813Z,18.86
2022-10-22T09:50:44.917Z,18.89
2022-10-22T09:53:13.475Z,18.92
2022-10-22T09:55:41.809Z,18.93
2022-10-22T09:58:11.580Z,18.91
2022-10-22T10:00:44.721Z,19.34
2022-10-22T10:03:19.503Z,19.50
2022-10-22T10:05:52.816Z,19.39
2022-10-22T10:08:19.615Z,18.80
2022-10-22T10:10:52.539Z,19.18
2022-10-22T10:13:57.357Z,19.64
2022-10-22T10:16:30.203Z,19.53
2022-10-22T10:18:57.750Z,19.79
2022-10-22T10:21:27.194Z,19.24
2022-10-22T10:24:31.314Z,19.12
2022-10-22T10:27:15.974Z,19.03
2022-10-22T10:30:24.350Z,18.70
2022-10-22T10:33:05.837Z,19.06
2022-10-22T10:35:55.188Z,19.32
2022-10-22T10:38:31.393Z,19.46
2022-10-22T10:41:07.581Z,20.20
2022-10-22T10:43:44.040Z,20.39
2022-10-22T10:46:20.300Z,20.29
2022-10-22T10:48:59.793Z,20.61
2022-10-22T10:51:36.195Z,21.15
2022-10-22T10:54:21.488Z,20.79
2022-10-22T10:56:53.442Z,21.20
2022-10-22T10:59:41.901Z,20.71
2022-10-22T11:02:08.325Z,20.74
2022-10-22T11:04:53.149Z,20.61
2022-10-22T11:07:34.655Z,20.29
2022-10-22T11:10:28.123Z,20.40
2022-10-22T11:12:59.530Z,20.63
2022-10-22T11:15:36.033Z,20.54
2022-10-22T11:18:25.464Z,20.24
2022-10-22T11:21:04.091Z,19.98
2022-10-22T11:23:38.394Z,19.86
2022-10-22T11:26:08.023Z,19.80
2022-10-22T11:28:40.212Z,19.85
2022-10-22T11:31:19.184Z,20.15
2022-10-22T11:34:00.540Z,20.80
2022-10-22T11:36:37.162Z,20.91
2022-10-22T11:39:04.493Z,20.88
2022-10-22T11:41:32.364Z,21.03
2022-10-22T11:44:12.679Z,21.25
2022-10-22T11:46:57.325Z,21.21
2022-10-22T11:49:28.776Z,21.32
2022-10-22T11:52:26.275Z,21.71
2022-10-22T11:54:58.337Z,22.02
2022-10-22T11:57:38.534Z,22.08
2022-10-22T12:00:41.275Z,21.54
2022-10-22T12:03:42.924Z,20.86
2022-10-22T12:06:12.397Z,20.90
2022-10-22T12:08:57.314Z,20.92
2022-10-22T12:11:25.255Z,21.33
2022-10-22T12:14:03.852Z,21.66
2022-10-22T12:16:54.778Z,21.60
2022-10-22T12:19:22.672Z,21.51
2022-10-22T12:21:54.188Z,21.77
2022-10-22T12:24:23.889Z,22.10
2022-10-22T12:26:52.667Z,22.01
2022-10-22T12:29:26.841Z,21.87
2022-10-22T12:31:55.100Z,21.20
2022-10-22T12:34:24.081Z,21.24
2022-10-22T12:36:52.451Z,21.12
2022-10-22T12:39:26.172Z,21.56
2022-10-22T12:41:54.010Z,20.95
2022-10-22T12:44:20.623Z,21.07
2022-10-22T12:46:52.953Z,21.09
2022-10-22T12:49:35.493Z,21.22
2022-10-22T12:52:10.821Z,20.75
2022-10-22T12:54:40.061Z,20.74
2022-10-22T12:57:10.210Z,20.17
2022-10-22T12:59:38.297Z,20.63
2022-10-22T13:02:16.243Z,20.33
2022-10-22T13:04:42.795Z,20.25
2022-10-22T13:07:12.271Z,21.02
2022-10-22T13:09:40.181Z,20.28
2022-10-22T13:12:08.586Z,20.55
2022-10-22T13:14:38.178Z,21.12
2022-10-22T13:17:08.065Z,20.97
2022-10-22T13:19:54.177Z,20.84
2022-10-22T13:22:32.809Z,20.78
2022-10-22T13:25:14.674Z,20.69
2022-10-22T13:27:49.038Z,20.43
2022-10-22T13:30:25.092Z,20.45
2022-10-22T13:33:00.128Z,20.63
2022-10-22T13:35:29.747Z,20.68
2022-10-22T13:37:56.196Z,20.71
2022-10-22T13:40:22.896Z,20.93
2022-10-22T13:42:49.464Z,20.36
2022-10-22T13:45:16.630Z,20.50
2022-10-22T13:47:48.371Z,20.13
2022-10-22T13:50:17.620Z,20.41
2022-10-22T13:52:48.028Z,20.38
2022-10-22T13:55:25.500Z,19.97
2022-10-22T13:57:53.614Z,20.15
2022-10-22T14:00:21.693Z,20.29
2022-10-22T14:02:50.273Z,20.23
2022-10-22T14:05:17.847Z,20.52
2022-10-22T14:07:44.846Z,20.36
2022-10-22T14:10:22.094Z,20.34
2022-10-22T14:12:52.445Z,20.40
2022-10-22T14:15:24.019Z,20.01
2022-10-22T14:17:54.890Z,20.23
2022-10-22T14:20:23.386Z,20.16
2022-10-22T14:22:51.099Z,20.34
2022-10-22T14:25:20.279Z,20.22
2022-10-22T14:27:47.276Z,20.36
2022-10-22T14:30:15.865Z,20.29
2022-10-22T14:32:43.100Z,19.96
2022-10-22T14:35:14.466Z,19.93
2022-10-22T14:37:40.963Z,19.88
2022-10-22T14:40:08.979Z,19.90
2022-10-22T14:42:41.735Z,19.87
2022-10-22T14:45:21.839Z,19.88
2022-10-22T14:47:49.215Z,19.72
2022-10-22T14:50:16.320Z,19.40
2022-10-22T14:52:43.750Z,20.01
2022-10-22T14:55:12.235Z,20.17
2022-10-22T14:57:39.681Z,20.40
2022-10-22T15:00:09.070Z,20.43
2022-10-22T15:02:35.543Z,20.50
2022-10-22T15:05:01.987Z,20.61
2022-10-22T15:07:28.508Z,20.67
2022-10-22T15:09:54.971Z,19.81
2022-10-22T15:12:21.476Z,19.89
2022-10-22T15:14:48.328Z,19.13
2022-10-22T15:17:15.837Z,19.89
2022-10-22T15:19:43.621Z,19.67
2022-10-22T15:22:13.172Z,19.65
2022-10-22T15:24:40.418Z,20.10
2022-10-22T15:27:06.950Z,19.84
2022-10-22T15:29:33.552Z,19.85
2022-10-22T15:32:00.660Z,19.49
2022-10-22T15:34:29.385Z,19.46
2022-10-22T15:36:57.903Z,19.34
2022-10-22T15:39:24.692Z,19.69
2022-10-22T15:41:51.745Z,19.57
2022-10-22T15:44:20.509Z,19.56
2022-10-22T15:46:47.029Z,19.36
2022-10-22T15:49:14.753Z,19.42
2022-10-22T15:51:41.236Z,19.45
2022-10-22T15:54:13.176Z,19.17
2022-10-22T15:56:39.803Z,19.45
2022-10-22T15:59:06.565Z,19.50
2022-10-22T16:01:34.205Z,19.46
2022-10-22T16:04:02.683Z,19.21
2022-10-22T16:06:34.633Z,19.16
2022-10-22T16:09:04.049Z,18.80
2022-10-22T16:11:30.896Z,18.68
2022-10-22T16:13:58.747Z,18.83
2022-10-22T16:16:27.282Z,18.74
2022-10-22T16:18:53.901Z,18.90
2022-10-22T16:21:21.608Z,19.00
2022-10-22T16:23:48.810Z,19.10
2022-10-22T16:26:16.423Z,19.06
2022-10-22T16:28:43.629Z,18.70
2022-10-22T16:31:12.428Z,18.75
2022-10-22T16:33:43.083Z,18.77
2022-10-22T16:36:14.456Z,18.93
2022-10-22T16:38:41.072Z,19.03
2022-10-22T16:41:11.801Z,18.67
2022-10-22T16:43:38.870Z,18.71
2022-10-22T16:46:06.088Z,18.69
2022-10-22T16:48:33.227Z,18.70
2022-10-22T16:51:00.791Z,18.95
2022-10-22T16:53:27.265Z,18.47
2022-10-22T16:55:53.752Z,18.98
2022-10-22T16:58:20.184Z,18.88
2022-10-22T17:00:46.670Z,19.06
2022-10-22T17:03:13.318Z,18.56
2022-10-22T17:05:39.802Z,18.38
2022-10-22T17:08:06.287Z,18.33
2022-10-22T17:10:32.772Z,18.71
2022-10-22T17:12:59.257Z,18.44
2022-10-22T17:15:25.848Z,18.49
2022-10-22T17:17:53.753Z,18.28
2022-10-22T17:20:20.232Z,18.20
2022-10-22T17:22:47.041Z,18.34
2022-10-22T17:25:19.950Z,18.20
2022-10-22T17:27:46.386Z,17.89
2022-10-22T17:30:15.847Z,17.93
2022-10-22T17:32:44.110Z,17.83
2022-10-22T17:35:12.372Z,18.18
2022-10-22T17:37:39.241Z,18.02
2022-10-22T17:40:06.617Z,17.81
2022-10-22T17:42:33.145Z,17.71
2022-10-22T17:44:59.698Z,18.03
2022-10-22T17:47:26.163Z,17.93
2022-10-22T17:49:53.787Z,18.12
2022-10-22T17:52:20.337Z,17.66
2022-10-22T17:54:48.462Z,18.34
2022-10-22T17:57:14.899Z,17.70
2022-10-22T17:59:41.367Z,18.10
2022-10-22T18:02:10.331Z,18.14
2022-10-22T18:04:36.793Z,17.72
2022-10-22T18:07:03.248Z,17.96
2022-10-22T18:09:29.728Z,18.07
2022-10-22T18:11:56.200Z,17.80
2022-10-22T18:14:23.354Z,17.83
2022-10-22T18:16:50.592Z,18.12
2022-10-22T18:19:19.560Z,18.12
2022-10-22T18:21:46.599Z,18.32
2022-10-22T18:24:15.278Z,18.25
2022-10-22T18:26:42.329Z,17.93
2022-10-22T18:29:10.578Z,17.90
2022-10-22T18:31:37.181Z,18.23
2022-10-22T18:34:03.686Z,18.09
2022-10-22T18:36:30.158Z,18.18
2022-10-22T18:38:58.961Z,18.12
2022-10-22T18:41:26.782Z,17.81
2022-10-22T18:43:58.529Z,17.73
2022-10-22T18:46:25.701Z,17.63
2022-10-22T18:48:53.526Z,17.84
2022-10-22T18:51:20.388Z,17.69
2022-10-22T18:53:59.197Z,17.64
2022-10-22T18:56:36.564Z,18.23
2022-10-22T18:59:03.037Z,17.60
2022-10-22T19:01:29.698Z,17.68
2022-10-22T19:03:56.668Z,18.04
2022-10-22T19:06:33.312Z,17.73
2022-10-22T19:09:04.291Z,17.81
2022-10-22T19:11:31.134Z,17.71
2022-10-22T19:13:58.083Z,17.78
2022-10-22T19:16:24.631Z,17.95
2022-10-22T19:18:52.362Z,17.87
2022-10-22T19:21:20.036Z,17.91
2022-10-22T19:23:46.601Z,18.11
2022-10-22T19:26:16.302Z,17.72
2022-10-22T19:28:43.800Z,17.92
2022-10-22T19:31:12.742Z,17.98
2022-10-22T19:33:40.080Z,18.20
2022-10-22T19:36:08.722Z,17.94
2022-10-22T19:38:37.815Z,17.73
2022-10-22T19:41:09.373Z,17.97
2022-10-22T19:43:36.033Z,17.87
2022-10-22T19:46:04.125Z,17.81
2022-10-22T19:48:30.653Z,18.11
2022-10-22T19:51:17.881Z,18.08
2022-10-22T19:53:44.859Z,18.04
2022-10-22T19:56:12.149Z,17.71
2022-10-22T19:58:39.300Z,18.00
2022-10-22T20:01:07.188Z,17.83
2022-10-22T20:03:36.225Z,17.86
2022-10-22T20:06:05.319Z,18.01
2022-10-22T20:08:34.458Z,18.09
2022-10-22T20:11:01.028Z,18.02
2022-10-22T20:13:27.641Z,17.99
2022-10-22T20:15:54.166Z,17.89
2022-10-22T20:18:22.417Z,18.06
2022-10-22T20:20:49.363Z,18.17
2022-10-22T20:23:16.021Z,18.01
2022-10-22T20:25:44.258Z,18.03
2022-10-22T20:28:11.471Z,18.12
2022-10-22T20:30:42.708Z,18.06
2022-10-22T20:33:09.348Z,18.02
2022-10-22T20:35:37.434Z,17.47
2022-10-22T20:38:05.269Z,17.17
2022-10-22T20:40:32.710Z,17.26
2022-10-22T20:43:00.728Z,17.71
2022-10-22T20:45:28.116Z,16.92
2022-10-22T20:48:02.146Z,17.07
2022-10-22T20:50:31.985Z,16.65
2022-10-22T20:52:59.048Z,17.36
2022-10-22T20:55:25.863Z,17.63
2022-10-22T20:57:52.498Z,17.07
2022-10-22T21:00:22.200Z,17.33
2022-10-22T21:02:50.358Z,17.65
2022-10-22T21:05:17.277Z,17.27
2022-10-22T21:07:44.163Z,17.76
2022-10-22T21:10:11.573Z,17.08
2022-10-22T21:12:42.036Z,17.18
2022-10-22T21:15:12.509Z,17.66
2022-10-22T21:17:40.863Z,17.45
2022-10-22T21:20:08.278Z,17.18
2022-10-22T21:22:35.464Z,16.84
2022-10-22T21:25:02.184Z,17.33
2022-10-22T21:27:28.686Z,17.11
2022-10-22T21:29:55.143Z,17.39
2022-10-22T21:32:21.590Z,17.08
2022-10-22T21:34:48.053Z,17.06
2022-10-22T21:37:14.504Z,16.84
2022-10-22T21:39:42.148Z,16.93
2022-10-22T21:42:09.022Z,16.76
2022-10-22T21:44:35.490Z,16.85
2022-10-22T21:47:02.768Z,16.63
2022-10-22T21:49:29.207Z,16.78
2022-10-22T21:51:55.750Z,16.74
2022-10-22T21:54:22.207Z,16.28
2022-10-22T21:56:49.105Z,16.42
2022-10-22T21:59:15.887Z,16.43
2022-10-22T22:01:42.472Z,16.41
2022-10-22T22:04:09.024Z,16.36
2022-10-22T22:06:35.554Z,16.43
2022-10-22T22:09:03.458Z,16.48
2022-10-22T22:11:30.376Z,16.26
2022-10-22T22:13:57.810Z,16.29
2022-10-22T22:16:28.605Z,16.21
2022-10-22T22:18:57.196Z,16.20
2022-10-22T22:21:23.781Z,16.18
2022-10-22T22:23:51.063Z,16.02
2022-10-22T22:26:25.224Z,16.23
2022-10-22T22:28:55.027Z,16.02
2022-10-22T22:31:25.953Z,16.17
2022-10-22T22:34:01.335Z,16.22
2022-10-22T22:36:27.920Z,15.94
2022-10-22T22:38:56.293Z,16.04
2022-10-22T22:41:22.933Z,15.97
2022-10-22T22:43:49.528Z,16.11
2022-10-22T22:46:17.291Z,16.04
2022-10-22T22:48:43.834Z,15.86
2022-10-22T22:51:10.495Z,15.89
2022-10-22T22:53:36.976Z,15.91
2022-10-22T22:56:10.413Z,15.83
2022-10-22T22:58:38.347Z,15.88
2022-10-22T23:01:15.506Z,15.81
2022-10-22T23:03:42.933Z,15.51
2022-10-22T23:06:09.700Z,15.70
2022-10-22T23:08:37.515Z,15.77
2022-10-22T23:11:10.108Z,15.82
2022-10-22T23:13:37.151Z,15.79
2022-10-22T23:16:08.432Z,15.69
2022-10-22T23:18:35.273Z,15.68
2022-10-22T23:21:12.968Z,15.56
2022-10-22T23:23:42.844Z,15.46
2022-10-22T23:26:12.099Z,15.71
2022-10-22T23:28:38.592Z,15.60
2022-10-22T23:31:05.270Z,15.45
2022-10-22T23:33:31.750Z,15.33
2022-10-22T23:36:01.317Z,15.31
2022-10-22T23:38:28.215Z,15.28
2022-10-22T23:40:56.570Z,15.32
2022-10-22T23:43:24.304Z,15.20
2022-10-22T23:45:50.989Z,15.10
2022-10-22T23:48:17.874Z,15.22
2022-10-22T23:50:44.532Z,15.16
2022-10-22T23:53:11.172Z,15.28
2022-10-22T23:55:41.482Z,15.20
2022-10-22T23:58:08.578Z,15.23
